Lower Swatara, Pennsylvania
Current Conditions -  °F | °C
As of 2:56 AM on Monday 26 Jan 2015 (Local Time) from KMDT Reporting Station
Moderate Snow Moderate Snow  
Wind Chill: 20°   Ceiling: 1700
Heat Index: 27°   Visibility: 0.5mi
Dew Point: 25°   Wind: 6mph
Humidity: 92%   Direction: 70°ENE
Pressure: 29.89"   Gusts: NA
Location:  40.1873°N, 76.6948°W
Report Text: KMDT 260756Z 07005KT 1/2SM R13/P6000FT SN SCT010 BKN017 OVC025 M03/M04 A2989 RMK AO2 SLP126 P0002 T10281039
Loading
Personal Weather Stations






























Interactive Weather Map New forecast layout! Learn more

10-Day Weather Forecast

Advertisements
Track Severe Weather on mobile